M I D A S
Marine Information and Data Acquisition System
Tripno 592 of the Zeeleeuw from 2003-09-17 06:21:40 to 2003-09-17 11:50:16
Back to CruiseResearch ActivitiesStationsMapUnderway DataData graphs

EquipmentUnitsComment
TimeDGPSUTC
LatitudeDGPSDM.mWGS84
LongitudeDGPSDM.mWGS84
TemperatureSBE03/SBE38deg celciusITS90
ConductivitySBE21S/mITS90
SalinitySBE21 Practical Salinity Units
ChlorophylAChelsea fluorimeterg/lCalibrated in Aceton
Missing or incorrect values are displayed as -999
Sea surface data collected by the RV Zeeleeuw from 2003-09-17 06:21:40 to 2003-09-17 11:50:16
Time Latitude Longitude Temperature Conductivity Salinity ChlorophylA
2003-09-17 06:22:46 51°13.84 2°55.62 23.758455 0.164422 0.848061 -0.410446
2003-09-17 06:23:44 51°13.95 2°55.54 24.112146 0.164317 0.847721 -0.444155
2003-09-17 06:24:44 51°14.07 2°55.46 24.153201 0.164317 0.847881 -0.410446
2003-09-17 06:25:44 51°14.2 2°55.35 24.569087 0.164317 0.848029 -0.410446
2003-09-17 06:26:44 51°14.33 2°55.14 24.199461 0.164213 0.847639 -0.410446
2003-09-17 06:27:44 51°14.44 2°54.89 24.344384 0.164213 0.847812 -0.444155
2003-09-17 06:28:44 51°14.47 2°54.58 24.545091 0.164213 0.847898 -0.376736
2003-09-17 06:29:44 51°14.37 2°54.28 24.036812 0.164109 0.847557 -0.444155
2003-09-17 06:30:44 51°14.27 2°53.97 24.241191 0.164109 0.84773 -0.444155
2003-09-17 06:31:44 51°14.17 2°53.66 24.222312 0.164109 0.847916 -0.410446
2003-09-17 06:32:46 51°14.07 2°53.33 24.512235 0.164005 0.84755 -0.410446
2003-09-17 06:33:46 51°13.96 2°53.02 23.777339 0.164005 0.847723 -0.410446
2003-09-17 06:34:44 51°13.86 2°52.71 23.850835 0.164005 0.847884 -0.410446
2003-09-17 06:35:44 51°13.76 2°52.39 18.565792 4.158979 29.812456 1.679537
2003-09-17 06:36:44 51°13.65 2°52.08 18.403571 4.43639 33.123803 1.106477
2003-09-17 06:37:44 51°13.54 2°51.76 18.544724 4.442932 33.265326 1.072768
2003-09-17 06:38:44 51°13.44 2°51.44 18.533444 4.462766 33.471266 1.005349
2003-09-17 06:39:46 51°13.33 2°51.11 18.441772 4.474475 33.562518 1.005349
2003-09-17 06:40:44 51°13.23 2°50.8 18.357851 4.480489 33.608299 1.005349
2003-09-17 06:41:44 51°13.12 2°50.48 18.452736 4.492199 33.702504 1.005349
2003-09-17 06:42:44 51°13.02 2°50.16 18.410733 4.491038 33.701598 1.005349
2003-09-17 06:43:44 51°12.91 2°49.85 18.370319 4.491144 33.711919 1.005349
2003-09-17 06:44:44 51°12.8 2°49.54 18.404647 4.48703 33.679708 1.005349
2003-09-17 06:45:44 51°12.69 2°49.22 18.334896 4.498529 33.771022 0.97164
2003-09-17 06:46:44 51°12.59 2°48.89 18.407338 4.49969 33.786094 0.904221
2003-09-17 06:47:44 51°12.49 2°48.57 18.506414 4.501061 33.80058 0.870512
2003-09-17 06:48:44 51°12.39 2°48.24 18.386222 4.500217 33.792893 0.870512
2003-09-17 06:49:44 51°12.29 2°47.91 18.379224 4.502749 33.809445 0.769383
2003-09-17 06:50:48 51°12.19 2°47.55 18.442434 4.51024 33.874789 0.836802
2003-09-17 06:51:48 51°12.11 2°47.22 18.395373 4.515093 33.921537 0.870512
2003-09-17 06:52:48 51°12.02 2°46.89 18.439662 4.520051 33.976336 0.93793
2003-09-17 06:53:48 51°11.93 2°46.56 18.373053 4.520474 33.997751 0.904221
2003-09-17 06:54:48 51°11.84 2°46.23 18.353294 4.525116 34.030884 0.93793
2003-09-17 06:55:48 51°11.75 2°45.89 18.524187 4.531868 34.078201 0.836802
2003-09-17 06:56:48 51°11.66 2°45.56 18.358804 4.532501 34.080547 0.870512
2003-09-17 06:57:48 51°11.57 2°45.23 18.447192 4.537248 34.123517 0.870512
2003-09-17 06:58:48 51°11.48 2°44.89 18.367295 4.529758 34.074756 0.836802
2003-09-17 06:59:48 51°11.38 2°44.56 18.454226 4.538304 34.148554 0.836802
2003-09-17 07:00:48 51°11.29 2°44.22 18.415617 4.536933 34.153157 0.870512
2003-09-17 07:01:48 51°11.2 2°43.89 18.374875 4.53957 34.177793 0.836802
2003-09-17 07:02:48 51°11.12 2°43.55 18.260969 4.53957 34.186786 0.97164
2003-09-17 07:03:48 51°11.02 2°43.22 18.289629 4.540203 34.199325 0.836802
2003-09-17 07:04:48 51°10.92 2°42.89 18.490911 4.539465 34.196695 0.904221
2003-09-17 07:05:48 51°10.82 2°42.56 18.350766 4.539782 34.202967 0.93793
2003-09-17 07:06:48 51°10.72 2°42.23 18.28233 4.53936 34.199406 0.904221
2003-09-17 07:07:48 51°10.62 2°41.9 18.326857 4.540204 34.206528 0.93793
2003-09-17 07:08:48 51°10.52 2°41.57 18.436559 4.537882 34.176146 0.93793
2003-09-17 07:09:48 51°10.42 2°41.24 18.401252 4.530075 34.101925 1.275024
2003-09-17 07:10:48 51°10.33 2°40.91 18.459603 4.526276 34.043043 1.477281
2003-09-17 07:11:48 51°10.23 2°40.57 18.374005 4.527859 34.037289 1.477281
2003-09-17 07:12:48 51°10.13 2°40.24 18.493722 4.528702 34.031285 1.477281
2003-09-17 07:13:48 51°10 2°39.93 18.469489 4.531762 34.049881 1.342443
2003-09-17 07:14:48 51°9.88 2°39.61 18.605184 4.538197 34.09032 1.612118
2003-09-17 07:15:48 51°9.76 2°39.29 18.492647 4.551068 34.164574 2.353725
2003-09-17 07:16:48 51°9.65 2°38.96 18.665674 4.556976 34.205892 2.555982
2003-09-17 07:17:48 51°9.53 2°38.64 18.662292 4.570481 34.311081 2.589691
2003-09-17 07:18:48 51°9.42 2°38.31 18.57525 4.584408 34.404213 2.589691
2003-09-17 07:19:48 51°9.3 2°37.99 18.505753 4.586518 34.414752 2.690819
2003-09-17 07:20:48 51°9.19 2°37.66 18.527039 4.585885 34.412431 2.791947
2003-09-17 07:21:48 51°9.14 2°37.42 18.596267 4.583353 34.401944 2.758238
2003-09-17 07:22:54 51°9.16 2°37.28 18.368207 4.579344 34.40065 2.589691
2003-09-17 07:23:54 51°9.16 2°37.24 18.374916 4.576812 34.383543 2.65711
2003-09-17 07:24:54 51°9.16 2°37.23 18.379348 4.577128 34.380801 2.6234
2003-09-17 07:25:54 51°9.16 2°37.21 18.382661 4.578606 34.390829 2.6234
2003-09-17 07:26:54 51°9.17 2°37.19 18.384773 4.579239 34.394955 2.65711
2003-09-17 07:27:54 51°9.17 2°37.16 18.396201 4.579344 34.392238 2.690819
2003-09-17 07:28:56 51°9.17 2°37.13 18.386512 4.580188 34.390331 2.758238
2003-09-17 07:29:58 51°9.13 2°37.08 18.392061 4.579133 34.392265 2.791947
2003-09-17 07:31:02 51°9.09 2°37.12 18.360999 4.579239 34.391951 2.724529
2003-09-17 07:32:02 51°9.1 2°37.18 18.348488 4.576812 34.392558 2.421144
2003-09-17 07:33:08 51°9.11 2°37.19 18.351346 4.57523 34.384643 2.522272
2003-09-17 07:34:12 51°9.12 2°37.2 18.354288 4.575124 34.383755 2.421144
2003-09-17 07:35:12 51°9.12 2°37.2 18.357022 4.575863 34.386968 2.454853
2003-09-17 07:36:12 51°9.12 2°37.21 18.358762 4.575863 34.385165 2.421144
2003-09-17 07:37:14 51°9.13 2°37.21 18.36336 4.576918 34.391042 2.454853
2003-09-17 07:38:14 51°9.13 2°37.2 18.363277 4.576812 34.38775 2.488563
2003-09-17 07:39:14 51°9.13 2°37.2 18.367544 4.577656 34.393052 2.454853
2003-09-17 07:40:12 51°9.13 2°37.2 18.369863 4.578289 34.396578 2.454853
2003-09-17 07:41:14 51°9.13 2°37.19 18.368 4.578078 34.393599 2.454853
2003-09-17 07:42:14 51°9.13 2°37.18 18.369242 4.577973 34.391509 2.488563
2003-09-17 07:43:12 51°9.13 2°37.18 18.370236 4.5785 34.396551 2.454853
2003-09-17 07:44:14 51°9.13 2°37.17 18.37355 4.5785 34.395349 2.454853
2003-09-17 07:45:14 51°9.13 2°37.16 18.377567 4.578711 34.394721 2.488563
2003-09-17 07:46:14 51°9.13 2°37.15 18.376573 4.579028 34.39378 2.454853
2003-09-17 07:47:14 51°9.13 2°37.15 18.378768 4.579028 34.394381 2.454853
2003-09-17 07:48:14 51°9.13 2°37.14 18.380425 4.579555 34.395215 2.454853
2003-09-17 07:49:14 51°9.13 2°37.15 18.381543 4.579766 34.39639 2.522272
2003-09-17 07:50:18 51°9.12 2°37.17 18.383862 4.579555 34.395215 2.589691
2003-09-17 07:51:18 51°9.1 2°37.18 18.380922 4.580188 34.398139 2.589691
2003-09-17 07:52:22 51°9.08 2°37.18 18.378602 4.580083 34.399655 2.589691
2003-09-17 07:53:22 51°9.05 2°37.17 18.377236 4.579977 34.400569 2.555982
2003-09-17 07:54:22 51°9.03 2°37.16 18.378602 4.579872 34.400282 2.555982
2003-09-17 07:55:22 51°9 2°37.12 18.375082 4.580716 34.404381 2.555982
2003-09-17 07:56:22 51°8.96 2°37.04 18.359301 4.579661 34.40091 2.522272
2003-09-17 07:57:22 51°8.93 2°36.74 18.347742 4.577973 34.402931 2.859366
2003-09-17 07:58:22 51°8.92 2°36.38 18.354661 4.575546 34.384904 2.893076
2003-09-17 07:59:22 51°8.91 2°36.02 18.384524 4.577551 34.387356 2.893076
2003-09-17 08:00:22 51°8.89 2°35.66 18.378023 4.5785 34.382733 2.926785
2003-09-17 08:01:22 51°8.84 2°35.31 18.407918 4.579449 34.388321 2.994204
2003-09-17 08:02:22 51°8.8 2°34.95 18.385063 4.579027 34.371565 2.960494
2003-09-17 08:03:22 51°8.73 2°34.61 18.38117 4.573647 34.341301 2.926785
2003-09-17 08:04:22 51°8.63 2°34.28 18.431924 4.573752 34.33979 2.825657
2003-09-17 08:05:22 51°8.52 2°33.97 18.492937 4.585462 34.380695 2.690819
2003-09-17 08:06:22 51°8.41 2°33.66 18.507944 4.593164 34.408831 2.522272
2003-09-17 08:07:22 51°8.29 2°33.36 18.472881 4.594747 34.425712 2.421144
2003-09-17 08:08:22 51°8.21 2°33.2 18.477016 4.592004 34.424258 2.185178
2003-09-17 08:09:22 51°8.14 2°33.09 18.490456 4.593586 34.427956 2.050341
2003-09-17 08:10:22 51°8.08 2°33.01 18.499221 4.595169 34.431054 1.949212
2003-09-17 08:11:28 51°8.07 2°32.97 18.500751 4.595485 34.427718 1.982922
2003-09-17 08:12:26 51°8.06 2°32.95 18.496947 4.595696 34.431287 2.08405
2003-09-17 08:13:26 51°8.07 2°32.93 18.499345 4.595591 34.427405 2.185178
2003-09-17 08:14:32 51°8.08 2°32.93 18.499345 4.594852 34.423002 2.218888
2003-09-17 08:15:32 51°8.08 2°32.92 18.501371 4.595696 34.430088 2.185178
2003-09-17 08:16:32 51°8.08 2°32.91 18.500916 4.595274 34.425946 2.151469
2003-09-17 08:17:32 51°8.08 2°32.89 18.498642 4.595696 34.42889 2.218888
2003-09-17 08:18:36 51°8.08 2°32.87 18.50228 4.594958 34.423289 2.252597
2003-09-17 08:19:36 51°8.08 2°32.84 18.504389 4.595802 34.427978 2.286306
2003-09-17 08:20:37 51°8.08 2°32.81 18.50815 4.595591 34.425607 2.252597
2003-09-17 08:21:37 51°8.07 2°32.78 18.50844 4.596329 34.423419 2.218888
2003-09-17 08:22:37 51°8.03 2°32.71 18.500999 4.595907 34.426467 2.286306
2003-09-17 08:23:37 51°7.98 2°32.76 18.492275 4.595485 34.426519 2.151469
2003-09-17 08:24:37 51°8.02 2°32.87 18.507861 4.596435 34.430296 1.949212
2003-09-17 08:25:38 51°8.08 2°33 18.508398 4.597068 34.43501 2.050341
2003-09-17 08:26:36 51°8.1 2°33.01 18.516376 4.596751 34.424565 2.151469
2003-09-17 08:27:38 51°8.1 2°33.01 18.518691 4.59654 34.421597 2.151469
2003-09-17 08:28:36 51°8.11 2°33.01 18.55592 4.59749 34.424774 2.151469
2003-09-17 08:29:36 51°8.11 2°33 18.520716 4.59749 34.424774 2.185178
2003-09-17 08:30:36 51°8.11 2°32.99 18.520716 4.597595 34.423863 2.218888
2003-09-17 08:31:36 51°8.11 2°32.98 18.520964 4.597068 34.421233 2.185178
2003-09-17 08:32:36 51°8.11 2°32.97 18.522989 4.597806 34.426232 2.185178
2003-09-17 08:33:36 51°8.11 2°32.98 18.522452 4.597068 34.420634 2.286306
2003-09-17 08:34:36 51°8.1 2°32.99 18.522824 4.597701 34.422952 2.320016
2003-09-17 08:35:36 51°8.09 2°33 18.520881 4.596962 34.419749 2.320016
2003-09-17 08:36:36 51°8.07 2°33.01 18.52427 4.597068 34.419437 2.286306
2003-09-17 08:37:36 51°8.04 2°33.02 18.528485 4.59749 34.42178 2.286306
2003-09-17 08:38:36 51°8.01 2°33.02 18.532081 4.597595 34.420271 2.218888
2003-09-17 08:39:38 51°7.96 2°32.97 18.530262 4.598861 34.425505 2.218888
2003-09-17 08:40:36 51°7.95 2°32.69 18.521377 4.59865 34.42553 2.286306
2003-09-17 08:41:36 51°8.11 2°32.47 18.499056 4.598123 34.424098 2.185178
2003-09-17 08:42:36 51°8.29 2°32.29 18.428613 4.579765 34.333434 2.218888
2003-09-17 08:43:36 51°8.45 2°32.29 18.511168 4.573751 34.271578 2.387435
2003-09-17 08:44:36 51°8.51 2°32.34 18.527039 4.579869 34.278769 2.286306
2003-09-17 08:45:36 51°8.52 2°32.34 18.532824 4.582191 34.291673 2.151469
2003-09-17 08:46:36 51°8.53 2°32.35 18.529973 4.583562 34.300191 2.08405
2003-09-17 08:47:38 51°8.53 2°32.35 18.537866 4.584828 34.306035 2.117759
2003-09-17 08:48:36 51°8.53 2°32.35 18.532081 4.584723 34.302168 2.151469
2003-09-17 08:49:42 51°8.53 2°32.34 18.536213 4.584512 34.303977 2.185178
2003-09-17 08:50:42 51°8.53 2°32.34 18.535634 4.584195 34.301324 2.185178
2003-09-17 08:51:42 51°8.52 2°32.33 18.54208 4.583879 34.296285 2.218888
2003-09-17 08:52:42 51°8.52 2°32.32 18.542989 4.583984 34.2924 2.252597
2003-09-17 08:53:42 51°8.51 2°32.31 18.540717 4.583034 34.28325 2.218888
2003-09-17 08:54:42 51°8.51 2°32.29 18.53737 4.583245 34.287402 2.252597
2003-09-17 08:55:42 51°8.5 2°32.28 18.537659 4.582718 34.287749 2.252597
2003-09-17 08:56:42 51°8.49 2°32.27 18.540427 4.582929 34.284153 2.252597
2003-09-17 08:57:42 51°8.48 2°32.27 18.54741 4.582612 34.2815 2.151469
2003-09-17 08:58:42 51°8.48 2°32.28 18.529312 4.583245 34.280848 2.08405
2003-09-17 08:59:42 51°8.48 2°32.28 18.519145 4.581663 34.28725 2.252597
2003-09-17 09:00:42 51°8.48 2°32.28 18.53989 4.580291 34.275154 2.252597
2003-09-17 09:01:42 51°8.49 2°32.28 18.54774 4.582612 34.277925 2.08405
2003-09-17 09:02:42 51°8.49 2°32.28 18.548319 4.582929 34.276408 2.117759
2003-09-17 09:03:42 51°8.49 2°32.28 18.551417 4.582823 34.275524 2.151469
2003-09-17 09:04:42 51°8.48 2°32.3 18.547658 4.583034 34.27491 2.050341
2003-09-17 09:05:42 51°8.48 2°32.32 18.535014 4.581768 34.271448 2.117759
2003-09-17 09:06:42 51°8.47 2°32.34 18.527287 4.580502 34.270964 2.117759
2003-09-17 09:07:42 51°8.46 2°32.36 18.515467 4.579869 34.27102 2.117759
2003-09-17 09:08:42 51°8.45 2°32.38 18.496575 4.578076 34.267306 2.185178
2003-09-17 09:09:42 51°8.43 2°32.39 18.482641 4.576282 34.266572 2.08405
2003-09-17 09:10:42 51°8.42 2°32.4 18.474535 4.573962 34.259623 2.08405
2003-09-17 09:11:42 51°8.47 2°32.49 18.453191 4.573645 34.262933 2.185178
2003-09-17 09:12:42 51°8.66 2°32.53 18.47896 4.572696 34.263916 2.185178
2003-09-17 09:13:42 51°8.85 2°32.54 18.514185 4.57586 34.261243 2.117759
2003-09-17 09:14:48 51°9 2°32.56 18.58132 4.583984 34.282271 2.320016
2003-09-17 09:15:48 51°9.06 2°32.6 18.648803 4.590525 34.29776 2.218888
2003-09-17 09:16:50 51°9.08 2°32.65 18.647772 4.595905 34.301151 2.016631
2003-09-17 09:17:50 51°9.09 2°32.67 18.643605 4.595377 34.299711 2.050341
2003-09-17 09:18:50 51°9.09 2°32.68 18.645132 4.595061 34.298252 2.050341
2003-09-17 09:19:48 51°9.09 2°32.69 18.631557 4.594428 34.29593 2.08405
2003-09-17 09:20:56 51°9.09 2°32.69 18.633166 4.593584 34.298381 2.151469
2003-09-17 09:21:56 51°9.08 2°32.69 18.626275 4.593373 34.295427 2.218888
2003-09-17 09:22:56 51°9.08 2°32.68 18.619837 4.593057 34.29813 2.218888
2003-09-17 09:23:56 51°9.07 2°32.67 18.609725 4.592107 34.296727 2.185178
2003-09-17 09:24:56 51°9.07 2°32.66 18.610385 4.592318 34.299683 2.218888
2003-09-17 09:25:56 51°9.07 2°32.66 18.609849 4.591896 34.30091 2.252597
2003-09-17 09:26:56 51°9.07 2°32.67 18.610468 4.591791 34.303598 2.252597
2003-09-17 09:27:56 51°9.07 2°32.68 18.607248 4.592002 34.299413 2.218888
2003-09-17 09:28:56 51°9.07 2°32.69 18.607702 4.591474 34.300353 2.218888
2003-09-17 09:29:56 51°9.07 2°32.7 18.612078 4.591685 34.300334 2.218888
2003-09-17 09:30:56 51°9.07 2°32.7 18.603822 4.591685 34.300929 2.320016
2003-09-17 09:31:56 51°9.08 2°32.7 18.606712 4.586937 34.262976 2.320016
2003-09-17 09:32:56 51°9.09 2°32.69 18.606959 4.588836 34.271736 2.252597
2003-09-17 09:33:56 51°9.09 2°32.69 18.608817 4.591791 34.301812 2.252597
2003-09-17 09:34:56 51°9.09 2°32.7 18.607248 4.591369 34.296495 2.286306
2003-09-17 09:35:56 51°9.09 2°32.71 18.613563 4.590736 34.291792 2.286306
2003-09-17 09:36:56 51°9.07 2°32.74 18.607166 4.591158 34.290565 2.320016
2003-09-17 09:37:56 51°9.03 2°32.77 18.599487 4.590841 34.296839 2.353725
2003-09-17 09:38:56 51°9 2°32.79 18.59957 4.589786 34.291578 2.286306
2003-09-17 09:39:56 51°8.96 2°32.79 18.585986 4.588942 34.289272 2.252597
2003-09-17 09:40:56 51°8.92 2°32.77 18.556746 4.585039 34.272057 2.286306
2003-09-17 09:41:56 51°8.87 2°32.67 18.530056 4.583667 34.280214 2.353725
2003-09-17 09:42:56 51°8.9 2°32.51 18.558192 4.576387 34.234094 2.117759
2003-09-17 09:43:56 51°8.99 2°32.5 18.59668 4.585355 34.274112 2.117759
2003-09-17 09:44:56 51°9.09 2°32.57 18.606216 4.589259 34.284782 2.286306
2003-09-17 09:45:56 51°9.18 2°32.67 18.612986 4.589891 34.284133 2.387435
2003-09-17 09:46:56 51°9.27 2°32.81 18.614554 4.590208 34.282619 2.421144
2003-09-17 09:47:56 51°9.36 2°32.97 18.61476 4.590946 34.285826 2.488563
2003-09-17 09:48:56 51°9.46 2°33.13 18.615586 4.590735 34.28406 2.454853
2003-09-17 09:49:56 51°9.56 2°33.29 18.619424 4.591157 34.286997 2.454853
2003-09-17 09:50:56 51°9.66 2°33.46 18.630443 4.591896 34.28842 2.421144
2003-09-17 09:51:56 51°9.76 2°33.63 18.638654 4.592529 34.286582 2.353725
2003-09-17 09:52:56 51°9.89 2°33.84 18.646328 4.593267 34.285629 2.387435
2003-09-17 09:53:56 51°10.02 2°34.06 18.654207 4.594006 34.284081 2.454853
2003-09-17 09:54:56 51°10.16 2°34.31 18.658373 4.59485 34.285793 2.488563
2003-09-17 09:55:56 51°10.29 2°34.56 18.65528 4.595272 34.286946 2.454853
2003-09-17 09:56:56 51°10.42 2°34.82 18.647236 4.596432 34.299025 2.488563
2003-09-17 09:57:56 51°10.56 2°35.06 18.636839 4.595905 34.302934 2.454853
2003-09-17 09:58:56 51°10.69 2°35.31 18.599983 4.595589 34.311584 2.522272
2003-09-17 09:59:56 51°10.84 2°35.54 18.617938 4.589892 34.290081 2.454853
2003-09-17 10:00:56 51°10.98 2°35.78 18.640882 4.592634 34.290437 2.488563
2003-09-17 10:01:54 51°11.11 2°36.02 18.648143 4.595061 34.296469 2.454853
2003-09-17 10:02:56 51°11.26 2°36.28 18.647813 4.595905 34.298774 2.353725
2003-09-17 10:03:56 51°11.4 2°36.52 18.636839 4.595905 34.302934 2.218888
2003-09-17 10:04:56 51°11.55 2°36.77 18.615668 4.594323 34.298614 2.218888
2003-09-17 10:05:56 51°11.69 2°37.02 18.600396 4.593795 34.312045 2.252597
2003-09-17 10:06:56 51°11.82 2°37.27 18.590363 4.591263 34.299182 2.286306
2003-09-17 10:07:56 51°11.96 2°37.51 18.583963 4.588731 34.28691 2.353725
2003-09-17 10:08:56 51°12.1 2°37.76 18.586317 4.587465 34.280476 2.421144
2003-09-17 10:09:56 51°12.24 2°38.01 18.579173 4.58641 34.274022 2.421144
2003-09-17 10:10:56 51°12.38 2°38.27 18.572029 4.584827 34.261961 2.488563
2003-09-17 10:11:56 51°12.51 2°38.52 18.604276 4.58335 34.251378 2.454853
2003-09-17 10:12:56 51°12.65 2°38.77 18.565173 4.579763 34.226099 2.454853
2003-09-17 10:13:56 51°12.79 2°39.02 18.564346 4.579025 34.222292 2.454853
2003-09-17 10:14:56 51°12.93 2°39.27 18.553731 4.57607 34.202309 2.421144
2003-09-17 10:15:56 51°13.07 2°39.52 18.557118 4.571639 34.178267 2.353725
2003-09-17 10:16:56 51°13.21 2°39.76 18.510052 4.560877 34.08638 2.185178
2003-09-17 10:17:56 51°13.34 2°40 18.475486 4.542731 33.974067 1.949212
2003-09-17 10:18:56 51°13.48 2°40.24 18.475197 4.52564 33.852164 1.848084
2003-09-17 10:19:54 51°13.63 2°40.45 18.487148 4.51087 33.713826 1.746956
2003-09-17 10:20:56 51°13.79 2°40.67 18.515095 4.50359 33.659955 1.713247
2003-09-17 10:21:56 51°13.93 2°40.87 18.581155 4.507176 33.651912 1.713247
2003-09-17 10:22:56 51°14.03 2°40.96 18.664024 4.510973 33.626406 1.5447
2003-09-17 10:23:56 51°14.09 2°40.97 18.593914 4.518041 33.631169 1.241315
2003-09-17 10:24:56 51°14.14 2°40.97 18.534023 4.513084 33.667368 1.443571
2003-09-17 10:25:56 51°14.15 2°40.98 18.536502 4.506121 33.639003 1.51099
2003-09-17 10:26:56 51°14.15 2°40.98 18.531791 4.504433 33.626066 1.578409
2003-09-17 10:27:56 51°14.14 2°41.01 18.522617 4.502429 33.612821 1.612118
2003-09-17 10:28:56 51°14.13 2°41.03 18.521088 4.504539 33.636298 1.578409
2003-09-17 10:29:56 51°14.12 2°41.05 18.531791 4.503062 33.623953 1.578409
2003-09-17 10:30:56 51°14.12 2°41.06 18.528485 4.503062 33.619279 1.578409
2003-09-17 10:31:56 51°14.13 2°41.06 18.527039 4.50264 33.618673 1.578409
2003-09-17 10:32:56 51°14.13 2°41.07 18.521336 4.502324 33.613107 1.578409
2003-09-17 10:33:56 51°14.13 2°41.08 18.520261 4.501058 33.604864 1.578409
2003-09-17 10:34:56 51°14.14 2°41.09 18.522452 4.504117 33.635109 1.5447
2003-09-17 10:35:56 51°14.14 2°41.1 18.521997 4.503695 33.632166 1.578409
2003-09-17 10:36:56 51°14.15 2°41.1 18.526667 4.503695 33.624569 1.578409
2003-09-17 10:37:56 51°14.15 2°41.09 18.544022 4.503484 33.615212 1.5447
2003-09-17 10:38:56 51°14.15 2°41.08 18.552698 4.504328 33.611171 1.5447
2003-09-17 10:39:56 51°14.15 2°41.07 18.564718 4.504328 33.608836 1.578409
2003-09-17 10:40:56 51°14.14 2°41.06 18.559225 4.505066 33.606252 1.578409
2003-09-17 10:41:56 51°14.13 2°41.05 18.538857 4.504328 33.608253 1.578409
2003-09-17 10:42:56 51°14.13 2°41.04 18.555548 4.503589 33.605002 1.578409
2003-09-17 10:43:56 51°14.12 2°41.03 18.565379 4.504433 33.60855 1.578409
2003-09-17 10:44:56 51°14.1 2°41.03 18.57748 4.505804 33.604252 1.612118
2003-09-17 10:45:56 51°14.08 2°41.03 18.585326 4.505804 33.600171 1.578409
2003-09-17 10:46:56 51°14.05 2°41.02 18.566577 4.506121 33.599315 1.578409
2003-09-17 10:47:56 51°14.02 2°41.02 18.550343 4.505172 33.609466 1.578409
2003-09-17 10:48:56 51°13.98 2°41.01 18.530593 4.505594 33.631674 1.612118
2003-09-17 10:49:56 51°13.94 2°40.99 18.683572 4.506332 33.619741 1.5447
2003-09-17 10:50:56 51°13.88 2°41.02 18.740945 4.513399 33.592491 1.443571
2003-09-17 10:51:56 51°13.85 2°41.2 18.826422 4.516351 33.52372 1.039059
2003-09-17 10:52:56 51°13.91 2°41.48 18.618021 4.515719 33.527713 1.241315
2003-09-17 10:53:56 51°13.97 2°41.78 18.572978 4.501267 33.537289 1.645828
2003-09-17 10:54:56 51°14.01 2°42.09 18.616576 4.496626 33.518337 1.645828
2003-09-17 10:55:56 51°14.06 2°42.4 18.571203 4.49652 33.516875 1.645828
2003-09-17 10:56:56 51°14.11 2°42.72 18.570459 4.49536 33.512426 1.578409
2003-09-17 10:57:56 51°14.15 2°43.03 18.547038 4.492406 33.49766 1.645828
2003-09-17 10:58:56 51°14.21 2°43.34 18.520798 4.488398 33.483966 1.645828
2003-09-17 10:59:56 51°14.27 2°43.64 18.484584 4.483545 33.466121 1.612118
2003-09-17 11:00:56 51°14.33 2°43.95 18.450626 4.476688 33.435581 1.5447
2003-09-17 11:01:56 51°14.39 2°44.26 18.437717 4.470043 33.40852 1.612118
2003-09-17 11:02:56 51°14.46 2°44.57 18.452074 4.468671 33.399378 1.578409
2003-09-17 11:03:56 51°14.52 2°44.88 18.463285 4.469198 33.389252 1.578409
2003-09-17 11:04:56 51°14.58 2°45.19 18.452736 4.466877 33.366947 1.578409
2003-09-17 11:05:56 51°14.65 2°45.5 18.452653 4.463713 33.343978 1.5447
2003-09-17 11:06:56 51°14.71 2°45.82 18.459438 4.462552 33.333119 1.612118
2003-09-17 11:07:56 51°14.77 2°46.13 18.460431 4.460442 33.313747 1.578409
2003-09-17 11:08:56 51°14.83 2°46.44 18.463574 4.458332 33.294379 1.578409
2003-09-17 11:09:56 51°14.9 2°46.76 18.471847 4.458121 33.288561 1.5447
2003-09-17 11:10:56 51°14.96 2°47.07 18.491159 4.457594 33.277785 1.5447
2003-09-17 11:11:56 51°15.03 2°47.39 18.503355 4.458332 33.268327 1.51099
2003-09-17 11:12:56 51°15.09 2°47.71 18.504389 4.456749 33.249914 1.51099
2003-09-17 11:13:56 51°15.15 2°48.02 18.521005 4.450947 33.200914 1.409862
2003-09-17 11:14:56 51°15.21 2°48.34 18.491986 4.446411 33.159606 1.376153
2003-09-17 11:15:56 51°15.27 2°48.65 18.496492 4.444829 33.154473 1.443571
2003-09-17 11:16:56 51°15.29 2°48.98 18.485576 4.44504 33.153928 1.376153
2003-09-17 11:17:56 51°15.3 2°49.31 18.470316 4.444407 33.161329 1.409862
2003-09-17 11:18:56 51°15.3 2°49.64 18.476065 4.442086 33.15003 1.308734
2003-09-17 11:19:56 51°15.31 2°49.97 18.463326 4.440187 33.133027 1.342443
2003-09-17 11:20:56 51°15.32 2°50.3 18.550219 4.437972 33.101294 1.173896
2003-09-17 11:21:56 51°15.32 2°50.62 18.492937 4.433013 33.007148 1.173896
2003-09-17 11:22:56 51°15.32 2°50.95 18.454929 4.414553 32.911725 1.477281
2003-09-17 11:23:56 51°15.32 2°51.28 18.419135 4.412127 32.910383 1.51099
2003-09-17 11:24:56 51°15.29 2°51.61 18.395953 4.41255 32.951174 1.477281
2003-09-17 11:25:56 51°15.23 2°51.93 18.380922 4.408858 32.94388 1.477281
2003-09-17 11:26:56 51°15.14 2°52.24 18.358969 4.398732 32.855843 1.612118
2003-09-17 11:27:56 51°15.04 2°52.54 18.346996 4.388922 32.795085 1.713247
2003-09-17 11:28:56 51°14.94 2°52.84 18.360833 4.377424 32.688219 1.848084
2003-09-17 11:29:56 51°14.85 2°53.15 18.342355 4.373627 32.672478 1.982922
2003-09-17 11:30:56 51°14.76 2°53.46 18.34596 4.369407 32.632123 2.016631
2003-09-17 11:31:56 51°14.69 2°53.77 18.324618 4.35907 32.553799 2.08405
2003-09-17 11:32:56 51°14.62 2°54.08 18.392144 4.347573 32.477127 2.08405
2003-09-17 11:33:56 51°14.56 2°54.38 18.474452 4.346517 32.395932 2.08405
2003-09-17 11:34:56 51°14.5 2°54.68 18.369656 4.343563 32.322374 2.252597
2003-09-17 11:35:56 51°14.41 2°54.97 18.483013 4.336496 32.258014 2.589691
2003-09-17 11:36:56 51°14.3 2°55.21 18.457825 4.287872 31.837131 3.365007
2003-09-17 11:37:56 51°14.2 2°55.36 18.405517 4.125253 30.542352 2.893076
2003-09-17 11:38:56 51°14.09 2°55.45 18.517244 4.069789 30.079892 2.825657
2003-09-17 11:39:56 51°13.98 2°55.53 18.549145 3.993137 29.402761 2.6234
2003-09-17 11:40:56 51°13.87 2°55.6 18.440117 3.957398 29.103506 2.454853
2003-09-17 11:41:56 51°13.77 2°55.69 18.420418 4.013065 29.635503 2.454853
2003-09-17 11:42:56 51°13.69 2°55.83 18.496492 3.909116 28.728734 2.185178
2003-09-17 11:43:56 51°13.64 2°55.96 18.579792 3.915441 28.774445 2.6234
2003-09-17 11:44:56 51°13.61 2°56.05 18.54427 3.69315 26.862068 1.982922
2003-09-17 11:45:56 51°13.6 2°56.1 18.420418 3.841863 28.185717 1.915503
2003-09-17 11:46:56 51°13.6 2°56.11 18.412595 3.886136 28.594063 1.982922
2003-09-17 11:48:00 51°13.6 2°56.11 18.440862 3.979856 29.409168 2.522272
2003-09-17 11:49:00 51°13.6 2°56.11 18.388293 3.863788 28.366009 2.758238
2003-09-17 11:50:00 51°13.6 2°56.11 18.409905 4.003472 29.597807 2.555982